createdAt,value
2017-09-03T00:00:33.703Z,0
2017-09-03T00:01:42.547Z,0
2017-09-03T00:02:51.488Z,0
2017-09-03T00:04:00.330Z,0
2017-09-03T00:05:09.173Z,0
2017-09-03T00:06:18.014Z,0
2017-09-03T00:07:26.855Z,0
2017-09-03T00:08:35.845Z,0
2017-09-03T00:09:44.687Z,0
2017-09-03T00:10:53.528Z,0
2017-09-03T00:12:02.371Z,0
2017-09-03T00:13:11.213Z,0
2017-09-03T00:14:20.156Z,0
2017-09-03T00:15:28.999Z,0
2017-09-03T00:16:37.840Z,0
2017-09-03T00:17:46.680Z,0
2017-09-03T00:18:55.520Z,0
2017-09-03T00:20:04.515Z,0
2017-09-03T00:21:13.353Z,0
2017-09-03T00:22:22.197Z,0
2017-09-03T00:23:31.042Z,0
2017-09-03T00:24:39.885Z,0
2017-09-03T00:25:48.875Z,0
2017-09-03T00:26:57.718Z,0
2017-09-03T00:28:06.562Z,0
2017-09-03T00:29:15.403Z,0
2017-09-03T00:30:24.243Z,0
2017-09-03T00:31:33.138Z,0
2017-09-03T00:32:41.982Z,0
2017-09-03T00:33:50.823Z,0
2017-09-03T00:34:59.664Z,0
2017-09-03T00:36:08.507Z,0
2017-09-03T00:37:17.393Z,0
2017-09-03T00:38:26.235Z,0
2017-09-03T00:39:35.080Z,0
2017-09-03T00:40:43.926Z,0
2017-09-03T00:41:52.770Z,0
2017-09-03T00:43:01.714Z,0
2017-09-03T00:44:10.560Z,0
2017-09-03T00:45:19.404Z,0
2017-09-03T00:46:28.248Z,0
2017-09-03T00:47:37.093Z,0
2017-09-03T00:48:46.037Z,0
2017-09-03T00:49:54.881Z,0
2017-09-03T00:51:03.724Z,0
2017-09-03T00:52:12.570Z,0
2017-09-03T00:53:21.747Z,0
2017-09-03T00:54:30.744Z,0
2017-09-03T00:55:39.590Z,0
2017-09-03T00:56:48.433Z,0
2017-09-03T00:57:57.276Z,0
2017-09-03T00:59:06.121Z,0
2017-09-03T01:00:15.115Z,0
2017-09-03T01:01:23.961Z,0
2017-09-03T01:02:32.805Z,0
2017-09-03T01:03:41.647Z,0
2017-09-03T01:04:50.493Z,0
2017-09-03T01:05:59.437Z,0
2017-09-03T01:07:08.281Z,0
2017-09-03T01:08:17.124Z,0
2017-09-03T01:09:25.970Z,0
2017-09-03T01:10:34.815Z,0
2017-09-03T01:11:43.808Z,0
2017-09-03T01:12:52.654Z,0
2017-09-03T01:14:01.501Z,0
2017-09-03T01:15:10.347Z,0
2017-09-03T01:16:19.192Z,0
2017-09-03T01:17:28.185Z,0
2017-09-03T01:18:37.034Z,0
2017-09-03T01:19:45.879Z,0
2017-09-03T01:20:54.720Z,0
2017-09-03T01:22:03.562Z,0
2017-09-03T01:23:12.655Z,0
2017-09-03T01:24:21.500Z,0
2017-09-03T01:25:30.344Z,0
2017-09-03T01:26:39.189Z,0
2017-09-03T01:27:48.033Z,0
2017-09-03T01:28:57.029Z,0
2017-09-03T01:30:05.872Z,0
2017-09-03T01:31:14.717Z,0
2017-09-03T01:32:23.558Z,0
2017-09-03T01:33:32.398Z,0
2017-09-03T01:34:41.392Z,0
2017-09-03T01:35:50.233Z,0
2017-09-03T01:36:59.075Z,0
2017-09-03T01:38:07.917Z,0
2017-09-03T01:39:16.760Z,0
2017-09-03T01:40:25.754Z,0
2017-09-03T01:41:34.594Z,0
2017-09-03T01:42:43.446Z,0
2017-09-03T01:43:52.627Z,0
2017-09-03T01:45:01.473Z,0
2017-09-03T01:46:10.466Z,0
2017-09-03T01:47:19.310Z,0
2017-09-03T01:48:28.155Z,0
2017-09-03T01:49:37.002Z,0
2017-09-03T01:50:45.847Z,0
2017-09-03T01:51:54.690Z,0
2017-09-03T01:53:03.531Z,0
2017-09-03T01:54:12.372Z,0
2017-09-03T01:55:21.216Z,0
2017-09-03T01:56:30.059Z,0
2017-09-03T01:57:39.051Z,0
2017-09-03T01:58:47.895Z,0
2017-09-03T01:59:56.734Z,0
2017-09-03T02:01:05.578Z,0
2017-09-03T02:02:14.421Z,0
2017-09-03T02:03:23.264Z,0
2017-09-03T02:04:32.106Z,0
2017-09-03T02:05:40.948Z,0
2017-09-03T02:06:49.792Z,0
2017-09-03T02:07:58.635Z,0
2017-09-03T02:09:07.731Z,0
2017-09-03T02:10:16.573Z,0
2017-09-03T02:11:25.413Z,0
2017-09-03T02:12:34.256Z,0
2017-09-03T02:13:43.099Z,0
2017-09-03T02:14:51.989Z,0
2017-09-03T02:16:00.834Z,0
2017-09-03T02:17:09.675Z,0
2017-09-03T02:18:18.518Z,0
2017-09-03T02:19:27.359Z,0
2017-09-03T02:20:36.204Z,0
2017-09-03T02:21:45.051Z,0
2017-09-03T02:22:53.893Z,0
2017-09-03T02:24:02.739Z,0
2017-09-03T02:25:11.583Z,0
2017-09-03T02:26:20.577Z,0
2017-09-03T02:27:29.420Z,0
2017-09-03T02:28:38.601Z,0
2017-09-03T02:29:47.447Z,0
2017-09-03T02:30:56.293Z,0
2017-09-03T02:32:05.389Z,0
2017-09-03T02:33:14.231Z,0
2017-09-03T02:34:23.076Z,0
2017-09-03T02:35:31.922Z,0
2017-09-03T02:36:40.763Z,0
2017-09-03T02:37:49.608Z,0
2017-09-03T02:38:58.451Z,0
2017-09-03T02:40:07.295Z,0
2017-09-03T02:41:16.141Z,0
2017-09-03T02:42:24.984Z,0
2017-09-03T02:43:33.827Z,0
2017-09-03T02:44:42.672Z,0
2017-09-03T02:45:51.519Z,0
2017-09-03T02:47:00.356Z,0
2017-09-03T02:48:09.199Z,0
2017-09-03T02:49:18.094Z,0
2017-09-03T02:50:26.938Z,0
2017-09-03T02:51:35.779Z,0
2017-09-03T02:52:44.954Z,0
2017-09-03T02:53:53.797Z,0
2017-09-03T02:55:02.689Z,0
2017-09-03T02:56:11.533Z,0
2017-09-03T02:57:20.377Z,0
2017-09-03T02:58:29.221Z,0
2017-09-03T02:59:38.064Z,0
2017-09-03T03:00:47.058Z,0
2017-09-03T03:01:55.899Z,0
2017-09-03T03:03:04.742Z,0
2017-09-03T03:04:13.583Z,0
2017-09-03T03:05:22.425Z,0
2017-09-03T03:06:31.268Z,0
2017-09-03T03:07:40.110Z,0
2017-09-03T03:08:48.950Z,0
2017-09-03T03:09:57.795Z,0
2017-09-03T03:11:06.634Z,0
2017-09-03T03:12:15.527Z,0
2017-09-03T03:13:24.369Z,0
2017-09-03T03:14:33.213Z,0
2017-09-03T03:15:42.053Z,0
2017-09-03T03:16:50.896Z,0
2017-09-03T03:18:00.072Z,0
2017-09-03T03:19:08.914Z,0
2017-09-03T03:20:17.755Z,0
2017-09-03T03:21:26.596Z,0
2017-09-03T03:22:35.438Z,0
2017-09-03T03:23:44.426Z,0
2017-09-03T03:24:53.268Z,0
2017-09-03T03:26:02.107Z,0
2017-09-03T03:27:10.949Z,0
2017-09-03T03:28:19.792Z,0
2017-09-03T03:29:28.730Z,0
2017-09-03T03:30:37.572Z,0
2017-09-03T03:31:46.412Z,0
2017-09-03T03:32:55.255Z,0
2017-09-03T03:34:04.095Z,0
2017-09-03T03:35:13.086Z,0
2017-09-03T03:36:21.931Z,0
2017-09-03T03:37:30.768Z,0
2017-09-03T03:38:39.942Z,0
2017-09-03T03:39:48.785Z,0
2017-09-03T03:40:57.626Z,0
2017-09-03T03:42:06.468Z,0
2017-09-03T03:43:15.311Z,0
2017-09-03T03:44:24.152Z,0
2017-09-03T03:45:32.995Z,0
2017-09-03T03:46:41.838Z,0
2017-09-03T03:47:50.678Z,0
2017-09-03T03:48:59.520Z,0
2017-09-03T03:50:08.364Z,0
2017-09-03T03:51:17.206Z,0
2017-09-03T03:52:26.045Z,0
2017-09-03T03:53:34.891Z,0
2017-09-03T03:54:43.738Z,0
2017-09-03T03:55:52.582Z,0
2017-09-03T03:57:01.427Z,0
2017-09-03T03:58:10.319Z,0
2017-09-03T03:59:19.160Z,0
2017-09-03T04:00:27.997Z,0
2017-09-03T04:01:36.859Z,0
2017-09-03T04:02:45.683Z,0
2017-09-03T04:03:54.676Z,0
2017-09-03T04:05:03.516Z,0
2017-09-03T04:06:12.357Z,0
2017-09-03T04:07:21.203Z,0
2017-09-03T04:08:30.043Z,0
2017-09-03T04:09:38.884Z,0
2017-09-03T04:10:47.728Z,0
2017-09-03T04:11:56.899Z,4
2017-09-03T04:13:05.739Z,4
2017-09-03T04:14:14.578Z,0
2017-09-03T04:15:23.567Z,4
2017-09-03T04:16:32.410Z,4
2017-09-03T04:17:41.252Z,4
2017-09-03T04:18:50.094Z,4
2017-09-03T04:19:58.937Z,4
2017-09-03T04:21:07.929Z,8
2017-09-03T04:22:16.768Z,8
2017-09-03T04:23:25.609Z,12
2017-09-03T04:24:34.448Z,12
2017-09-03T04:25:43.289Z,16
2017-09-03T04:26:52.231Z,20
2017-09-03T04:28:01.073Z,24
2017-09-03T04:29:09.922Z,24
2017-09-03T04:30:18.758Z,28
2017-09-03T04:31:27.599Z,28
2017-09-03T04:32:36.589Z,36
2017-09-03T04:33:45.435Z,40
2017-09-03T04:34:54.272Z,40
2017-09-03T04:36:03.114Z,44
2017-09-03T04:37:11.956Z,52
2017-09-03T04:38:20.947Z,56
2017-09-03T04:39:29.791Z,64
2017-09-03T04:40:38.630Z,68
2017-09-03T04:41:47.471Z,80
2017-09-03T04:42:56.318Z,88
2017-09-03T04:44:05.640Z,96
2017-09-03T04:45:14.815Z,108
2017-09-03T04:46:23.656Z,120
2017-09-03T04:47:32.500Z,128
2017-09-03T04:48:41.343Z,140
2017-09-03T04:49:50.332Z,156
2017-09-03T04:50:59.174Z,172
2017-09-03T04:52:08.015Z,188
2017-09-03T04:53:16.855Z,204
2017-09-03T04:54:25.697Z,220
2017-09-03T04:55:34.786Z,232
2017-09-03T04:56:43.627Z,248
2017-09-03T04:57:52.466Z,260
2017-09-03T04:59:01.310Z,280
2017-09-03T05:00:10.156Z,292
2017-09-03T05:01:19.381Z,300
2017-09-03T05:02:28.222Z,312
2017-09-03T05:03:37.062Z,324
2017-09-03T05:04:45.906Z,332
2017-09-03T05:05:54.762Z,340
2017-09-03T05:07:03.589Z,348
2017-09-03T05:08:12.429Z,356
2017-09-03T05:09:21.269Z,368
2017-09-03T05:10:30.112Z,380
2017-09-03T05:11:38.957Z,396
2017-09-03T05:12:47.797Z,404
2017-09-03T05:13:56.640Z,416
2017-09-03T05:15:05.484Z,424
2017-09-03T05:16:14.326Z,436
2017-09-03T05:17:23.168Z,452
2017-09-03T05:18:32.360Z,468
2017-09-03T05:19:41.206Z,484
2017-09-03T05:20:50.380Z,500
2017-09-03T05:21:59.222Z,508
2017-09-03T05:23:08.085Z,524
2017-09-03T05:24:16.907Z,532
2017-09-03T05:25:25.748Z,536
2017-09-03T05:26:34.588Z,544
2017-09-03T05:27:43.432Z,556
2017-09-03T05:28:52.275Z,564
2017-09-03T05:30:01.268Z,580
2017-09-03T05:31:10.108Z,588
2017-09-03T05:32:18.952Z,600
2017-09-03T05:33:27.795Z,608
2017-09-03T05:34:36.637Z,612
2017-09-03T05:35:45.625Z,620
2017-09-03T05:36:54.474Z,628
2017-09-03T05:38:03.316Z,640
2017-09-03T05:39:12.156Z,648
2017-09-03T05:40:20.999Z,656
2017-09-03T05:41:30.322Z,664
2017-09-03T05:42:39.166Z,668
2017-09-03T05:43:48.008Z,676
2017-09-03T05:44:57.188Z,684
2017-09-03T05:46:06.030Z,692
2017-09-03T05:47:15.073Z,704
2017-09-03T05:48:23.914Z,712
2017-09-03T05:49:32.757Z,708
2017-09-03T05:50:41.600Z,712
2017-09-03T05:51:50.444Z,724
2017-09-03T05:52:59.335Z,736
2017-09-03T05:54:08.182Z,736
2017-09-03T05:55:17.022Z,744
2017-09-03T05:56:25.863Z,748
2017-09-03T05:57:34.706Z,752
2017-09-03T05:58:43.650Z,760
2017-09-03T05:59:52.494Z,768
2017-09-03T06:01:01.336Z,788
2017-09-03T06:02:10.180Z,816
2017-09-03T06:03:19.020Z,828
2017-09-03T06:04:28.011Z,836
2017-09-03T06:05:36.852Z,848
2017-09-03T06:06:45.697Z,856
2017-09-03T06:07:54.538Z,856
2017-09-03T06:09:03.380Z,864
2017-09-03T06:10:12.275Z,868
2017-09-03T06:11:21.119Z,872
2017-09-03T06:12:29.959Z,876
2017-09-03T06:13:38.802Z,884
2017-09-03T06:14:47.644Z,888
2017-09-03T06:15:56.488Z,896
2017-09-03T06:17:05.332Z,916
2017-09-03T06:18:14.176Z,936
2017-09-03T06:19:23.017Z,952
2017-09-03T06:20:31.860Z,956
2017-09-03T06:21:40.756Z,952
2017-09-03T06:22:49.597Z,944
2017-09-03T06:23:58.441Z,940
2017-09-03T06:25:07.284Z,936
2017-09-03T06:26:16.460Z,936
2017-09-03T06:27:25.454Z,936
2017-09-03T06:28:34.296Z,940
2017-09-03T06:29:43.144Z,940
2017-09-03T06:30:51.988Z,944
2017-09-03T06:32:00.835Z,944
2017-09-03T06:33:09.799Z,948
2017-09-03T06:34:18.620Z,952
2017-09-03T06:35:27.464Z,952
2017-09-03T06:36:36.640Z,952
2017-09-03T06:37:45.483Z,956
2017-09-03T06:38:54.479Z,964
2017-09-03T06:40:03.324Z,968
2017-09-03T06:41:12.174Z,972
2017-09-03T06:42:21.010Z,972
2017-09-03T06:43:29.854Z,972
2017-09-03T06:44:38.850Z,972
2017-09-03T06:45:47.691Z,980
2017-09-03T06:46:56.534Z,980
2017-09-03T06:48:05.377Z,980
2017-09-03T06:49:14.222Z,984
2017-09-03T06:50:23.447Z,988
2017-09-03T06:51:32.290Z,992
2017-09-03T06:52:41.133Z,996
2017-09-03T06:53:49.976Z,996
2017-09-03T06:54:58.825Z,996
2017-09-03T06:56:07.820Z,1000
2017-09-03T06:57:16.662Z,1000
2017-09-03T06:58:25.505Z,1004
2017-09-03T06:59:34.349Z,1004
2017-09-03T07:00:43.193Z,1004
2017-09-03T07:01:52.089Z,1000
2017-09-03T07:03:00.934Z,1004
2017-09-03T07:04:09.778Z,1000
2017-09-03T07:05:18.620Z,1000
2017-09-03T07:06:27.465Z,1000
2017-09-03T07:07:36.518Z,1000
2017-09-03T07:08:45.375Z,1000
2017-09-03T07:09:54.223Z,1000
2017-09-03T07:11:03.068Z,1004
2017-09-03T07:12:12.242Z,1004
2017-09-03T07:13:21.235Z,1008
2017-09-03T07:14:30.083Z,1008
2017-09-03T07:15:38.927Z,1012
2017-09-03T07:16:47.772Z,1016
2017-09-03T07:17:56.616Z,1020
2017-09-03T07:19:05.511Z,1020
2017-09-03T07:20:14.358Z,1028
2017-09-03T07:21:23.204Z,1032
2017-09-03T07:22:32.046Z,1032
2017-09-03T07:23:40.892Z,1036
2017-09-03T07:24:49.892Z,1036
2017-09-03T07:25:58.738Z,1036
2017-09-03T07:27:07.580Z,1036
2017-09-03T07:28:16.425Z,1036
2017-09-03T07:29:25.268Z,1040
2017-09-03T07:30:34.262Z,1044
2017-09-03T07:31:43.110Z,1040
2017-09-03T07:32:51.956Z,1044
2017-09-03T07:34:00.801Z,1044
2017-09-03T07:35:09.646Z,1044
2017-09-03T07:36:18.641Z,1048
2017-09-03T07:37:27.485Z,1052
2017-09-03T07:38:36.329Z,1052
2017-09-03T07:39:45.173Z,1056
2017-09-03T07:40:54.017Z,1064
2017-09-03T07:42:02.964Z,1064
2017-09-03T07:43:11.809Z,1072
2017-09-03T07:44:20.993Z,1072
2017-09-03T07:45:29.839Z,1136
2017-09-03T07:46:38.684Z,1136
2017-09-03T07:47:47.826Z,1140
2017-09-03T07:48:56.672Z,1144
2017-09-03T07:50:05.518Z,1148
2017-09-03T07:51:14.360Z,1152
2017-09-03T07:52:23.208Z,1160
2017-09-03T07:53:32.051Z,1160
2017-09-03T07:54:40.897Z,1160
2017-09-03T07:55:49.740Z,1164
2017-09-03T07:56:58.586Z,1168
2017-09-03T07:58:07.430Z,1172
2017-09-03T07:59:16.425Z,1172
2017-09-03T08:00:25.271Z,1176
2017-09-03T08:01:34.114Z,1176
2017-09-03T08:02:42.959Z,1180
2017-09-03T08:03:51.808Z,1188
2017-09-03T08:05:00.803Z,1192
2017-09-03T08:06:09.650Z,1196
2017-09-03T08:07:18.495Z,1200
2017-09-03T08:08:27.339Z,1204
2017-09-03T08:09:36.184Z,1208
2017-09-03T08:10:45.180Z,1216
2017-09-03T08:11:54.024Z,1224
2017-09-03T08:13:02.870Z,1232
2017-09-03T08:14:11.714Z,1236
2017-09-03T08:15:20.559Z,1240
2017-09-03T08:16:29.407Z,1252
2017-09-03T08:17:38.253Z,1268
2017-09-03T08:18:47.098Z,1276
2017-09-03T08:19:55.942Z,1280
2017-09-03T08:21:04.789Z,1284
2017-09-03T08:22:14.453Z,1292
2017-09-03T08:23:23.630Z,1328
2017-09-03T08:24:32.474Z,1404
2017-09-03T08:25:41.320Z,1328
2017-09-03T08:26:50.166Z,1324
2017-09-03T08:27:59.162Z,1328
2017-09-03T08:29:08.003Z,1308
2017-09-03T08:30:17.190Z,1372
2017-09-03T08:31:26.039Z,1464
2017-09-03T08:32:34.886Z,1476
2017-09-03T08:33:43.882Z,1396
2017-09-03T08:34:52.728Z,1288
2017-09-03T08:36:01.576Z,1272
2017-09-03T08:37:10.422Z,1276
2017-09-03T08:38:19.267Z,1276
2017-09-03T08:39:28.263Z,1284
2017-09-03T08:40:37.111Z,1292
2017-09-03T08:41:45.960Z,1296
2017-09-03T08:42:54.809Z,1296
2017-09-03T08:44:03.653Z,1300
2017-09-03T08:45:12.650Z,1296
2017-09-03T08:46:21.497Z,1296
2017-09-03T08:47:30.342Z,1300
2017-09-03T08:48:39.187Z,1308
2017-09-03T08:49:48.040Z,1312
2017-09-03T08:50:56.940Z,1296
2017-09-03T08:52:05.787Z,1316
2017-09-03T08:53:14.633Z,1244
2017-09-03T08:54:23.477Z,1364
2017-09-03T08:55:32.326Z,1360
2017-09-03T08:56:41.224Z,1368
2017-09-03T08:57:50.064Z,1372
2017-09-03T08:58:58.911Z,1384
2017-09-03T09:00:07.759Z,1388
2017-09-03T09:01:16.606Z,1400
2017-09-03T09:02:25.603Z,1412
2017-09-03T09:03:34.454Z,1428
2017-09-03T09:04:43.307Z,1332
2017-09-03T09:05:52.167Z,1328
2017-09-03T09:07:01.024Z,1348
2017-09-03T09:08:10.030Z,1400
2017-09-03T09:09:18.890Z,1404
2017-09-03T09:10:27.745Z,1424
2017-09-03T09:11:36.603Z,1604
2017-09-03T09:12:45.465Z,1596
2017-09-03T09:13:54.361Z,1804
2017-09-03T09:15:03.208Z,2168
2017-09-03T09:16:12.053Z,2228
2017-09-03T09:17:20.899Z,2276
2017-09-03T09:18:29.745Z,2140
2017-09-03T09:19:38.742Z,2184
2017-09-03T09:20:47.589Z,2408
2017-09-03T09:21:56.436Z,2736
2017-09-03T09:23:05.288Z,2896
2017-09-03T09:24:14.136Z,2868
2017-09-03T09:25:23.184Z,2952
2017-09-03T09:26:32.031Z,2752
2017-09-03T09:27:40.877Z,2464
2017-09-03T09:28:49.724Z,2296
2017-09-03T09:29:58.570Z,2088
2017-09-03T09:31:07.567Z,2224
2017-09-03T09:32:16.416Z,2444
2017-09-03T09:33:25.263Z,2916
2017-09-03T09:34:34.110Z,3256
2017-09-03T09:35:42.957Z,3540
2017-09-03T09:36:51.903Z,3748
2017-09-03T09:38:00.750Z,3688
2017-09-03T09:39:09.596Z,3572
2017-09-03T09:40:18.441Z,3748
2017-09-03T09:41:27.297Z,3840
2017-09-03T09:42:36.184Z,3744
2017-09-03T09:43:45.029Z,3864
2017-09-03T09:44:54.212Z,4364
2017-09-03T09:46:03.060Z,5084
2017-09-03T09:47:12.240Z,5496
2017-09-03T09:48:21.302Z,5464
2017-09-03T09:50:02.208Z,5228
2017-09-03T09:51:11.057Z,5012
2017-09-03T09:52:19.905Z,5036
2017-09-03T09:53:28.906Z,5224
2017-09-03T09:54:37.755Z,5568
2017-09-03T09:55:46.603Z,6040
2017-09-03T09:56:55.452Z,6544
2017-09-03T09:58:04.300Z,6776
2017-09-03T09:59:13.315Z,6532
2017-09-03T10:00:22.146Z,6188
2017-09-03T10:01:31.332Z,6340
2017-09-03T10:02:40.187Z,6444
2017-09-03T10:03:49.039Z,6660
2017-09-03T10:04:58.043Z,6484
2017-09-03T10:06:06.893Z,6320
2017-09-03T10:07:15.743Z,6456
2017-09-03T10:08:24.656Z,6584
2017-09-03T10:09:33.503Z,6728
2017-09-03T10:10:42.402Z,6772
2017-09-03T10:11:51.253Z,7176
2017-09-03T10:13:00.102Z,7444
2017-09-03T10:14:09.067Z,7604
2017-09-03T10:15:18.249Z,8096
2017-09-03T10:16:27.149Z,8112
2017-09-03T10:17:35.997Z,7584
2017-09-03T10:18:44.848Z,7244
2017-09-03T10:19:53.697Z,7248
2017-09-03T10:21:02.548Z,7420
2017-09-03T10:22:11.660Z,7796
2017-09-03T10:23:20.505Z,7820
2017-09-03T10:24:29.354Z,7748
2017-09-03T10:25:38.229Z,7944
2017-09-03T10:26:47.408Z,7752
2017-09-03T10:27:56.308Z,6576
2017-09-03T10:29:05.217Z,5448
2017-09-03T10:30:14.340Z,5280
2017-09-03T10:31:23.190Z,5036
2017-09-03T10:32:32.102Z,4868
2017-09-03T10:33:41.050Z,5080
2017-09-03T10:34:49.899Z,5248
2017-09-03T10:35:58.748Z,5172
2017-09-03T10:37:07.596Z,5100
2017-09-03T10:38:16.445Z,5244
2017-09-03T10:39:25.545Z,5552
2017-09-03T10:40:34.397Z,6012
2017-09-03T10:41:43.248Z,6240
2017-09-03T10:42:52.098Z,6332
2017-09-03T10:44:00.949Z,6468
2017-09-03T10:45:10.050Z,6452
2017-09-03T10:46:18.902Z,6660
2017-09-03T10:47:27.749Z,7028
2017-09-03T10:48:36.707Z,7380
2017-09-03T10:49:45.558Z,7640
2017-09-03T10:50:54.558Z,7840
2017-09-03T10:52:03.411Z,8324
2017-09-03T10:53:12.263Z,8844
2017-09-03T10:54:21.115Z,8468
2017-09-03T10:55:29.964Z,8420
2017-09-03T10:56:38.816Z,8108
2017-09-03T10:57:47.666Z,6956
2017-09-03T10:58:56.519Z,6492
2017-09-03T11:00:05.367Z,5308
2017-09-03T11:01:14.259Z,4976
2017-09-03T11:02:23.110Z,4856
2017-09-03T11:03:31.971Z,5132
2017-09-03T11:04:40.833Z,5596
2017-09-03T11:05:49.687Z,5820
2017-09-03T11:06:58.541Z,5784
2017-09-03T11:08:07.388Z,6028
2017-09-03T11:09:16.240Z,6396
2017-09-03T11:10:25.089Z,6132
2017-09-03T11:11:33.939Z,6528
2017-09-03T11:12:42.788Z,7256
2017-09-03T11:13:51.971Z,6824
2017-09-03T11:15:00.819Z,5308
2017-09-03T11:16:09.667Z,5136
2017-09-03T11:17:18.516Z,5908
2017-09-03T11:18:27.367Z,6848
2017-09-03T11:19:36.217Z,6876
2017-09-03T11:20:45.067Z,6444
2017-09-03T11:21:53.969Z,5772
2017-09-03T11:23:02.820Z,4440
2017-09-03T11:24:11.670Z,4188
2017-09-03T11:25:20.520Z,4088
2017-09-03T11:26:29.367Z,4232
2017-09-03T11:27:38.369Z,4184
2017-09-03T11:28:47.226Z,4132
2017-09-03T11:29:56.407Z,4136
2017-09-03T11:31:05.261Z,4104
2017-09-03T11:32:14.112Z,4364
2017-09-03T11:33:23.112Z,4924
2017-09-03T11:34:31.963Z,5808
2017-09-03T11:35:40.815Z,6700
2017-09-03T11:36:49.667Z,7068
2017-09-03T11:37:58.519Z,6688
2017-09-03T11:39:07.467Z,6768
2017-09-03T11:40:16.320Z,6532
2017-09-03T11:41:25.171Z,6520
2017-09-03T11:42:34.022Z,7480
2017-09-03T11:43:43.574Z,7564
2017-09-03T11:44:52.508Z,7388
2017-09-03T11:46:01.373Z,7452
2017-09-03T11:47:10.272Z,7696
2017-09-03T11:48:19.140Z,7120
2017-09-03T11:49:27.990Z,7224
2017-09-03T11:50:36.842Z,7532
2017-09-03T11:51:45.730Z,7248
2017-09-03T11:52:54.619Z,7244
2017-09-03T11:54:03.486Z,9112
2017-09-03T11:55:12.401Z,9496
2017-09-03T11:56:21.304Z,7372
2017-09-03T11:57:30.168Z,6408
2017-09-03T11:58:39.393Z,6756
2017-09-03T11:59:48.275Z,11264
2017-09-03T12:00:57.145Z,7804
2017-09-03T12:02:06.036Z,7788
2017-09-03T12:03:14.909Z,11076
2017-09-03T12:04:23.780Z,8804
2017-09-03T12:05:32.701Z,9072
2017-09-03T12:06:41.591Z,10380
2017-09-03T12:07:50.487Z,9384
2017-09-03T12:08:59.348Z,7132
2017-09-03T12:10:08.349Z,5568
2017-09-03T12:11:17.201Z,4728
2017-09-03T12:12:26.057Z,4964
2017-09-03T12:13:34.912Z,21024
2017-09-03T12:14:43.764Z,56032
2017-09-03T12:15:52.765Z,34208
2017-09-03T12:17:01.620Z,21888
2017-09-03T12:18:10.471Z,32672
2017-09-03T12:19:19.321Z,14720
2017-09-03T12:20:28.176Z,6464
2017-09-03T12:21:37.181Z,7196
2017-09-03T12:22:46.032Z,10692
2017-09-03T12:23:55.223Z,9984
2017-09-03T12:25:04.085Z,10284
2017-09-03T12:26:12.939Z,14628
2017-09-03T12:27:21.941Z,13196
2017-09-03T12:28:30.870Z,11028
2017-09-03T12:29:39.724Z,8640
2017-09-03T12:30:48.575Z,10060
2017-09-03T12:31:57.429Z,11088
2017-09-03T12:33:06.330Z,11060
2017-09-03T12:34:15.519Z,9024
2017-09-03T12:35:24.372Z,5936
2017-09-03T12:36:33.224Z,7604
2017-09-03T12:37:42.404Z,9000
2017-09-03T12:38:51.356Z,11360
2017-09-03T12:40:00.207Z,11628
2017-09-03T12:41:09.062Z,9232
2017-09-03T12:42:17.914Z,8920
2017-09-03T12:43:26.765Z,9960
2017-09-03T12:44:35.616Z,12044
2017-09-03T12:45:44.468Z,27616
2017-09-03T12:46:53.319Z,32864
2017-09-03T12:48:02.170Z,25088
2017-09-03T12:49:11.020Z,19584
2017-09-03T12:50:19.973Z,11556
2017-09-03T12:51:28.822Z,10320
2017-09-03T12:52:37.676Z,16064
2017-09-03T12:53:46.528Z,17280
2017-09-03T12:54:55.381Z,11656
2017-09-03T12:56:04.384Z,9748
2017-09-03T12:57:13.238Z,9696
2017-09-03T12:58:22.091Z,8548
2017-09-03T12:59:30.945Z,8132
2017-09-03T13:00:39.798Z,8196
2017-09-03T13:01:48.748Z,8496
2017-09-03T13:02:57.601Z,10308
2017-09-03T13:04:06.451Z,9456
2017-09-03T13:05:15.303Z,10640
2017-09-03T13:06:24.156Z,10636
2017-09-03T13:07:33.008Z,9252
2017-09-03T13:08:41.860Z,9276
2017-09-03T13:09:50.717Z,9448
2017-09-03T13:10:59.570Z,9804
2017-09-03T13:12:08.766Z,12868
2017-09-03T13:13:17.768Z,16800
2017-09-03T13:14:26.618Z,14816
2017-09-03T13:15:35.470Z,13020
2017-09-03T13:16:44.324Z,12204
2017-09-03T13:17:53.177Z,12680
2017-09-03T13:19:02.081Z,13000
2017-09-03T13:20:10.933Z,12276
2017-09-03T13:21:19.789Z,12804
2017-09-03T13:22:28.646Z,12124
2017-09-03T13:23:37.835Z,10932
2017-09-03T13:24:46.744Z,10684
2017-09-03T13:25:55.596Z,10144
2017-09-03T13:27:04.448Z,10740
2017-09-03T13:28:13.303Z,10728
2017-09-03T13:29:22.159Z,9636
2017-09-03T13:30:31.160Z,9704
2017-09-03T13:31:40.017Z,9008
2017-09-03T13:32:48.867Z,8568
2017-09-03T13:33:57.719Z,8168
2017-09-03T13:35:06.573Z,7860
2017-09-03T13:36:15.474Z,7796
2017-09-03T13:37:24.327Z,7996
2017-09-03T13:38:33.177Z,8616
2017-09-03T13:39:42.029Z,9932
2017-09-03T13:40:50.881Z,9892
2017-09-03T13:41:59.884Z,13180
2017-09-03T13:43:08.735Z,11724
2017-09-03T13:44:17.589Z,11272
2017-09-03T13:45:26.442Z,14768
2017-09-03T13:46:35.295Z,16928
2017-09-03T13:47:44.248Z,9484
2017-09-03T13:48:53.100Z,17824
2017-09-03T13:50:01.952Z,31840
2017-09-03T13:51:10.804Z,27616
2017-09-03T13:52:19.660Z,30592
2017-09-03T13:53:28.512Z,29472
2017-09-03T13:54:37.366Z,17792
2017-09-03T13:55:46.228Z,14996
2017-09-03T13:56:55.083Z,12264
2017-09-03T13:58:04.276Z,11860
2017-09-03T13:59:13.276Z,18656
2017-09-03T14:00:22.129Z,29120
2017-09-03T14:01:30.985Z,28928
2017-09-03T14:02:39.841Z,10384
2017-09-03T14:03:48.694Z,8980
2017-09-03T14:04:57.599Z,17344
2017-09-03T14:06:06.455Z,38272
2017-09-03T14:07:15.311Z,45856
2017-09-03T14:08:24.164Z,47168
2017-09-03T14:09:33.018Z,43968
2017-09-03T14:10:42.029Z,40928
2017-09-03T14:11:50.888Z,44384
2017-09-03T14:12:59.743Z,42400
2017-09-03T14:14:08.601Z,45408
2017-09-03T14:15:17.457Z,45728
2017-09-03T14:16:26.441Z,44096
2017-09-03T14:17:35.277Z,45184
2017-09-03T14:18:44.136Z,45824
2017-09-03T14:19:53.329Z,44896
2017-09-03T14:21:02.191Z,43872
2017-09-03T14:22:11.303Z,44480
2017-09-03T14:23:20.161Z,44384
2017-09-03T14:24:29.021Z,43200
2017-09-03T14:25:37.881Z,42592
2017-09-03T14:26:46.739Z,40608
2017-09-03T14:27:55.749Z,42112
2017-09-03T14:29:04.611Z,42656
2017-09-03T14:30:13.473Z,43904
2017-09-03T14:31:22.331Z,43744
2017-09-03T14:32:31.193Z,44544
2017-09-03T14:33:40.053Z,44640
2017-09-03T14:34:48.913Z,44736
2017-09-03T14:35:57.775Z,44352
2017-09-03T14:37:06.639Z,43744
2017-09-03T14:38:15.831Z,42528
2017-09-03T14:39:24.740Z,41376
2017-09-03T14:40:33.606Z,43360
2017-09-03T14:41:42.470Z,44192
2017-09-03T14:42:51.664Z,27072
2017-09-03T14:44:00.523Z,32384
2017-09-03T14:45:09.438Z,42816
2017-09-03T14:46:18.308Z,43232
2017-09-03T14:47:27.499Z,44832
2017-09-03T14:48:36.359Z,43712
2017-09-03T14:49:45.224Z,43040
2017-09-03T14:50:54.187Z,43712
2017-09-03T14:52:03.047Z,44256
2017-09-03T14:53:11.964Z,44480
2017-09-03T14:54:20.827Z,43968
2017-09-03T14:55:29.704Z,44416
2017-09-03T14:56:38.669Z,40128
2017-09-03T14:57:47.537Z,30048
2017-09-03T14:58:56.412Z,40384
2017-09-03T15:00:05.285Z,42208
2017-09-03T15:01:14.150Z,20512
2017-09-03T15:02:23.016Z,11644
2017-09-03T15:03:31.878Z,11788
2017-09-03T15:04:40.742Z,36096
2017-09-03T15:05:49.605Z,9044
2017-09-03T15:06:58.466Z,26592
2017-09-03T15:08:07.535Z,33536
2017-09-03T15:09:16.397Z,16576
2017-09-03T15:10:25.260Z,25728
2017-09-03T15:11:34.118Z,14272
2017-09-03T15:12:42.979Z,8552
2017-09-03T15:13:51.991Z,7760
2017-09-03T15:15:00.853Z,7152
2017-09-03T15:16:09.713Z,6496
2017-09-03T15:17:18.573Z,6256
2017-09-03T15:18:27.429Z,6024
2017-09-03T15:19:36.337Z,5952
2017-09-03T15:20:45.529Z,5848
2017-09-03T15:21:54.384Z,5440
2017-09-03T15:23:03.240Z,5192
2017-09-03T15:24:12.101Z,5324
2017-09-03T15:25:21.008Z,5628
2017-09-03T15:26:29.868Z,6052
2017-09-03T15:27:38.724Z,6688
2017-09-03T15:28:47.582Z,7456
2017-09-03T15:29:56.437Z,7264
2017-09-03T15:31:05.540Z,6572
2017-09-03T15:32:14.393Z,5852
2017-09-03T15:33:23.245Z,5296
2017-09-03T15:34:32.432Z,5028
2017-09-03T15:35:41.285Z,5020
2017-09-03T15:36:50.286Z,4964
2017-09-03T15:37:59.137Z,4840
2017-09-03T15:39:07.991Z,4628
2017-09-03T15:40:16.845Z,4344
2017-09-03T15:41:25.695Z,4096
2017-09-03T15:42:34.548Z,3992
2017-09-03T15:43:43.408Z,3876
2017-09-03T15:44:52.259Z,3716